sensor_id;sensor_type;location;lat;lon;timestamp;temperature;humidity
32502;DHT22;18952;52.516;13.460;2024-01-15T00:01:43;1.80;78.30
32502;DHT22;18952;52.516;13.460;2024-01-15T00:04:16;1.80;78.30
32502;DHT22;18952;52.516;13.460;2024-01-15T00:06:44;1.80;78.50
32502;DHT22;18952;52.516;13.460;2024-01-15T00:09:13;1.80;78.90
32502;DHT22;18952;52.516;13.460;2024-01-15T00:11:41;1.70;79.00
32502;DHT22;18952;52.516;13.460;2024-01-15T00:14:09;1.60;79.50
32502;DHT22;18952;52.516;13.460;2024-01-15T00:16:37;1.70;79.40
32502;DHT22;18952;52.516;13.460;2024-01-15T00:19:05;1.70;79.80
32502;DHT22;18952;52.516;13.460;2024-01-15T00:21:34;1.60;79.90
32502;DHT22;18952;52.516;13.460;2024-01-15T00:24:04;1.60;79.50
32502;DHT22;18952;52.516;13.460;2024-01-15T00:26:36;1.70;79.70
32502;DHT22;18952;52.516;13.460;2024-01-15T00:29:03;1.60;79.40
32502;DHT22;18952;52.516;13.460;2024-01-15T00:31:30;1.60;79.40
32502;DHT22;18952;52.516;13.460;2024-01-15T00:33:58;1.60;79.00
32502;DHT22;18952;52.516;13.460;2024-01-15T00:36:27;1.70;79.20
32502;DHT22;18952;52.516;13.460;2024-01-15T00:38:56;1.60;78.80
32502;DHT22;18952;52.516;13.460;2024-01-15T00:41:26;1.60;79.40
32502;DHT22;18952;52.516;13.460;2024-01-15T00:43:54;1.70;78.80
32502;DHT22;18952;52.516;13.460;2024-01-15T00:46:21;1.70;78.60
32502;DHT22;18952;52.516;13.460;2024-01-15T00:48:48;1.70;78.60
32502;DHT22;18952;52.516;13.460;2024-01-15T00:51:15;1.70;78.40
32502;DHT22;18952;52.516;13.460;2024-01-15T00:53:44;1.70;78.10
32502;DHT22;18952;52.516;13.460;2024-01-15T00:56:12;1.60;78.60
32502;DHT22;18952;52.516;13.460;2024-01-15T00:58:39;1.60;78.30
32502;DHT22;18952;52.516;13.460;2024-01-15T01:01:10;1.70;78.40
32502;DHT22;18952;52.516;13.460;2024-01-15T01:03:37;1.70;78.10
32502;DHT22;18952;52.516;13.460;2024-01-15T01:06:05;1.70;78.30
32502;DHT22;18952;52.516;13.460;2024-01-15T01:08:34;1.50;78.90
32502;DHT22;18952;52.516;13.460;2024-01-15T01:11:01;1.50;79.20
32502;DHT22;18952;52.516;13.460;2024-01-15T01:13:30;1.50;79.50
32502;DHT22;18952;52.516;13.460;2024-01-15T01:15:59;1.50;80.00
32502;DHT22;18952;52.516;13.460;2024-01-15T01:18:28;1.40;80.40
32502;DHT22;18952;52.516;13.460;2024-01-15T01:20:57;1.30;81.10
32502;DHT22;18952;52.516;13.460;2024-01-15T01:23:25;1.30;81.40
32502;DHT22;18952;52.516;13.460;2024-01-15T01:25:53;1.20;82.00
32502;DHT22;18952;52.516;13.460;2024-01-15T01:28:21;1.20;82.60
32502;DHT22;18952;52.516;13.460;2024-01-15T01:30:48;1.20;82.90
32502;DHT22;18952;52.516;13.460;2024-01-15T01:33:17;1.10;82.70
32502;DHT22;18952;52.516;13.460;2024-01-15T01:35:44;1.10;82.30
32502;DHT22;18952;52.516;13.460;2024-01-15T01:38:12;1.20;81.90
32502;DHT22;18952;52.516;13.460;2024-01-15T01:40:40;1.10;82.30
32502;DHT22;18952;52.516;13.460;2024-01-15T01:43:10;1.20;82.10
32502;DHT22;18952;52.516;13.460;2024-01-15T01:45:37;1.10;82.60
32502;DHT22;18952;52.516;13.460;2024-01-15T01:48:06;1.20;82.40
32502;DHT22;18952;52.516;13.460;2024-01-15T01:50:34;1.20;82.40
32502;DHT22;18952;52.516;13.460;2024-01-15T01:53:01;1.00;83.10
32502;DHT22;18952;52.516;13.460;2024-01-15T01:55:29;0.90;83.90
32502;DHT22;18952;52.516;13.460;2024-01-15T01:58:02;0.80;83.70
32502;DHT22;18952;52.516;13.460;2024-01-15T02:00:36;0.80;84.90
32502;DHT22;18952;52.516;13.460;2024-01-15T02:03:06;0.90;84.70
32502;DHT22;18952;52.516;13.460;2024-01-15T02:05:40;0.80;84.90
32502;DHT22;18952;52.516;13.460;2024-01-15T02:08:10;0.90;84.30
32502;DHT22;18952;52.516;13.460;2024-01-15T02:10:38;0.90;84.10
32502;DHT22;18952;52.516;13.460;2024-01-15T02:13:05;0.90;83.90
32502;DHT22;18952;52.516;13.460;2024-01-15T02:15:32;0.90;83.70
32502;DHT22;18952;52.516;13.460;2024-01-15T02:18:04;1.00;83.00
32502;DHT22;18952;52.516;13.460;2024-01-15T02:20:33;1.00;83.30
32502;DHT22;18952;52.516;13.460;2024-01-15T02:23:17;1.10;82.50
32502;DHT22;18952;52.516;13.460;2024-01-15T02:25:45;1.00;82.20
32502;DHT22;18952;52.516;13.460;2024-01-15T02:28:16;1.10;81.90
32502;DHT22;18952;52.516;13.460;2024-01-15T02:30:45;1.00;81.00
32502;DHT22;18952;52.516;13.460;2024-01-15T02:33:15;1.10;81.50
32502;DHT22;18952;52.516;13.460;2024-01-15T02:35:43;1.10;81.10
32502;DHT22;18952;52.516;13.460;2024-01-15T02:38:10;1.10;80.90
32502;DHT22;18952;52.516;13.460;2024-01-15T02:40:38;1.10;80.20
32502;DHT22;18952;52.516;13.460;2024-01-15T02:43:05;1.10;79.50
32502;DHT22;18952;52.516;13.460;2024-01-15T02:45:32;1.10;78.90
32502;DHT22;18952;52.516;13.460;2024-01-15T02:48:02;1.10;79.30
32502;DHT22;18952;52.516;13.460;2024-01-15T02:50:29;1.00;79.30
32502;DHT22;18952;52.516;13.460;2024-01-15T02:52:55;1.10;79.40
32502;DHT22;18952;52.516;13.460;2024-01-15T02:55:24;1.10;79.10
32502;DHT22;18952;52.516;13.460;2024-01-15T02:57:51;1.20;78.60
32502;DHT22;18952;52.516;13.460;2024-01-15T03:00:20;1.20;78.80
32502;DHT22;18952;52.516;13.460;2024-01-15T03:02:49;1.20;78.80
32502;DHT22;18952;52.516;13.460;2024-01-15T03:05:18;1.20;78.40
32502;DHT22;18952;52.516;13.460;2024-01-15T03:07:45;1.20;78.90
32502;DHT22;18952;52.516;13.460;2024-01-15T03:10:14;1.20;78.40
32502;DHT22;18952;52.516;13.460;2024-01-15T03:12:42;1.20;78.20
32502;DHT22;18952;52.516;13.460;2024-01-15T03:15:10;1.20;78.70
32502;DHT22;18952;52.516;13.460;2024-01-15T03:17:40;1.20;78.20
32502;DHT22;18952;52.516;13.460;2024-01-15T03:20:09;1.30;78.10
32502;DHT22;18952;52.516;13.460;2024-01-15T03:22:37;1.30;77.30
32502;DHT22;18952;52.516;13.460;2024-01-15T03:25:06;1.30;77.40
32502;DHT22;18952;52.516;13.460;2024-01-15T03:27:35;1.20;77.10
32502;DHT22;18952;52.516;13.460;2024-01-15T03:30:03;1.10;77.40
32502;DHT22;18952;52.516;13.460;2024-01-15T03:32:31;1.20;77.50
32502;DHT22;18952;52.516;13.460;2024-01-15T03:34:59;1.20;77.30
32502;DHT22;18952;52.516;13.460;2024-01-15T03:37:28;1.10;77.30
32502;DHT22;18952;52.516;13.460;2024-01-15T03:39:55;1.20;77.10
32502;DHT22;18952;52.516;13.460;2024-01-15T03:42:24;1.20;76.80
32502;DHT22;18952;52.516;13.460;2024-01-15T03:44:51;1.20;76.40
32502;DHT22;18952;52.516;13.460;2024-01-15T03:47:19;1.20;76.90
32502;DHT22;18952;52.516;13.460;2024-01-15T03:49:46;1.30;76.30
32502;DHT22;18952;52.516;13.460;2024-01-15T03:52:14;1.20;76.10
32502;DHT22;18952;52.516;13.460;2024-01-15T03:54:43;1.20;76.20
32502;DHT22;18952;52.516;13.460;2024-01-15T03:57:10;1.10;76.60
32502;DHT22;18952;52.516;13.460;2024-01-15T03:59:43;1.20;76.30
32502;DHT22;18952;52.516;13.460;2024-01-15T04:02:11;1.30;76.40
32502;DHT22;18952;52.516;13.460;2024-01-15T04:04:42;1.30;76.20
32502;DHT22;18952;52.516;13.460;2024-01-15T04:07:10;1.20;75.90
32502;DHT22;18952;52.516;13.460;2024-01-15T04:09:41;1.20;76.30
32502;DHT22;18952;52.516;13.460;2024-01-15T04:12:08;1.20;76.00
32502;DHT22;18952;52.516;13.460;2024-01-15T04:14:37;1.30;77.00
32502;DHT22;18952;52.516;13.460;2024-01-15T04:17:04;1.30;76.30
32502;DHT22;18952;52.516;13.460;2024-01-15T04:19:32;1.20;75.70
32502;DHT22;18952;52.516;13.460;2024-01-15T04:22:07;1.30;76.20
32502;DHT22;18952;52.516;13.460;2024-01-15T04:24:36;1.20;75.80
32502;DHT22;18952;52.516;13.460;2024-01-15T04:27:07;1.20;75.90
32502;DHT22;18952;52.516;13.460;2024-01-15T04:29:40;1.30;75.50
32502;DHT22;18952;52.516;13.460;2024-01-15T04:32:09;1.30;75.30
32502;DHT22;18952;52.516;13.460;2024-01-15T04:34:36;1.40;75.50
32502;DHT22;18952;52.516;13.460;2024-01-15T04:37:06;1.40;74.90
32502;DHT22;18952;52.516;13.460;2024-01-15T04:39:33;1.50;74.40
32502;DHT22;18952;52.516;13.460;2024-01-15T04:42:01;1.40;74.80
32502;DHT22;18952;52.516;13.460;2024-01-15T04:44:28;1.30;74.80
32502;DHT22;18952;52.516;13.460;2024-01-15T04:46:57;1.30;74.60
32502;DHT22;18952;52.516;13.460;2024-01-15T04:49:24;1.30;74.80
32502;DHT22;18952;52.516;13.460;2024-01-15T04:51:54;1.40;74.40
32502;DHT22;18952;52.516;13.460;2024-01-15T04:54:21;1.40;74.20
32502;DHT22;18952;52.516;13.460;2024-01-15T04:56:48;1.40;74.20
32502;DHT22;18952;52.516;13.460;2024-01-15T04:59:16;1.30;74.00
32502;DHT22;18952;52.516;13.460;2024-01-15T05:01:42;1.40;74.10
32502;DHT22;18952;52.516;13.460;2024-01-15T05:04:12;1.40;73.90
32502;DHT22;18952;52.516;13.460;2024-01-15T05:06:39;1.40;73.60
32502;DHT22;18952;52.516;13.460;2024-01-15T05:09:06;1.40;73.60
32502;DHT22;18952;52.516;13.460;2024-01-15T05:11:34;1.40;73.50
32502;DHT22;18952;52.516;13.460;2024-01-15T05:14:02;1.40;73.70
32502;DHT22;18952;52.516;13.460;2024-01-15T05:16:30;1.50;73.10
32502;DHT22;18952;52.516;13.460;2024-01-15T05:18:58;1.60;72.90
32502;DHT22;18952;52.516;13.460;2024-01-15T05:21:25;1.40;73.10
32502;DHT22;18952;52.516;13.460;2024-01-15T05:23:52;1.50;73.90
32502;DHT22;18952;52.516;13.460;2024-01-15T05:26:21;1.50;73.80
32502;DHT22;18952;52.516;13.460;2024-01-15T05:28:48;1.40;74.60
32502;DHT22;18952;52.516;13.460;2024-01-15T05:31:16;1.40;74.80
32502;DHT22;18952;52.516;13.460;2024-01-15T05:33:47;1.40;74.90
32502;DHT22;18952;52.516;13.460;2024-01-15T05:36:15;1.40;75.30
32502;DHT22;18952;52.516;13.460;2024-01-15T05:38:43;1.50;74.70
32502;DHT22;18952;52.516;13.460;2024-01-15T05:41:10;1.50;74.50
32502;DHT22;18952;52.516;13.460;2024-01-15T05:43:37;1.50;74.40
32502;DHT22;18952;52.516;13.460;2024-01-15T05:46:04;1.50;74.10
32502;DHT22;18952;52.516;13.460;2024-01-15T05:48:30;1.50;73.70
32502;DHT22;18952;52.516;13.460;2024-01-15T05:50:57;1.60;73.60
32502;DHT22;18952;52.516;13.460;2024-01-15T05:53:25;1.50;74.10
32502;DHT22;18952;52.516;13.460;2024-01-15T05:55:54;1.50;73.80
32502;DHT22;18952;52.516;13.460;2024-01-15T05:58:21;1.60;73.70
32502;DHT22;18952;52.516;13.460;2024-01-15T06:00:47;1.50;74.00
32502;DHT22;18952;52.516;13.460;2024-01-15T06:03:16;1.60;74.80
32502;DHT22;18952;52.516;13.460;2024-01-15T06:05:43;1.50;75.90
32502;DHT22;18952;52.516;13.460;2024-01-15T06:08:11;1.40;76.70
32502;DHT22;18952;52.516;13.460;2024-01-15T06:10:39;1.30;76.70
32502;DHT22;18952;52.516;13.460;2024-01-15T06:13:07;1.40;77.10
32502;DHT22;18952;52.516;13.460;2024-01-15T06:15:35;1.40;76.70
32502;DHT22;18952;52.516;13.460;2024-01-15T06:18:04;1.40;76.50
32502;DHT22;18952;52.516;13.460;2024-01-15T06:20:32;1.50;75.80
32502;DHT22;18952;52.516;13.460;2024-01-15T06:23:00;1.50;75.50
32502;DHT22;18952;52.516;13.460;2024-01-15T06:25:28;1.50;75.60
32502;DHT22;18952;52.516;13.460;2024-01-15T06:27:54;1.50;75.10
32502;DHT22;18952;52.516;13.460;2024-01-15T06:30:21;1.60;74.60
32502;DHT22;18952;52.516;13.460;2024-01-15T06:32:50;1.50;74.50
32502;DHT22;18952;52.516;13.460;2024-01-15T06:35:17;1.50;74.80
32502;DHT22;18952;52.516;13.460;2024-01-15T06:37:50;1.60;74.60
32502;DHT22;18952;52.516;13.460;2024-01-15T06:40:17;1.60;74.70
32502;DHT22;18952;52.516;13.460;2024-01-15T06:42:45;1.60;75.20
32502;DHT22;18952;52.516;13.460;2024-01-15T06:45:13;1.50;75.60
32502;DHT22;18952;52.516;13.460;2024-01-15T06:47:41;1.60;75.70
32502;DHT22;18952;52.516;13.460;2024-01-15T06:50:09;1.60;75.60
32502;DHT22;18952;52.516;13.460;2024-01-15T06:52:36;1.70;75.90
32502;DHT22;18952;52.516;13.460;2024-01-15T06:55:06;1.70;75.30
32502;DHT22;18952;52.516;13.460;2024-01-15T06:57:38;1.70;75.00
32502;DHT22;18952;52.516;13.460;2024-01-15T07:00:08;1.60;75.90
32502;DHT22;18952;52.516;13.460;2024-01-15T07:02:35;1.80;75.10
32502;DHT22;18952;52.516;13.460;2024-01-15T07:05:04;1.70;75.40
32502;DHT22;18952;52.516;13.460;2024-01-15T07:07:31;1.60;74.70
32502;DHT22;18952;52.516;13.460;2024-01-15T07:10:00;1.70;75.00
32502;DHT22;18952;52.516;13.460;2024-01-15T07:12:27;1.70;74.00
32502;DHT22;18952;52.516;13.460;2024-01-15T07:14:54;1.60;74.20
32502;DHT22;18952;52.516;13.460;2024-01-15T07:17:21;1.70;74.40
32502;DHT22;18952;52.516;13.460;2024-01-15T07:19:49;1.70;74.10
32502;DHT22;18952;52.516;13.460;2024-01-15T07:22:18;1.70;74.10
32502;DHT22;18952;52.516;13.460;2024-01-15T07:24:46;1.80;73.20
32502;DHT22;18952;52.516;13.460;2024-01-15T07:27:14;1.70;73.50
32502;DHT22;18952;52.516;13.460;2024-01-15T07:29:43;1.80;73.10
32502;DHT22;18952;52.516;13.460;2024-01-15T07:32:11;1.80;72.60
32502;DHT22;18952;52.516;13.460;2024-01-15T07:34:41;1.80;72.90
32502;DHT22;18952;52.516;13.460;2024-01-15T07:37:11;1.80;72.40
32502;DHT22;18952;52.516;13.460;2024-01-15T07:39:40;1.80;72.90
32502;DHT22;18952;52.516;13.460;2024-01-15T07:42:11;1.80;72.60
32502;DHT22;18952;52.516;13.460;2024-01-15T07:44:38;1.90;72.30
32502;DHT22;18952;52.516;13.460;2024-01-15T07:47:06;1.90;72.50
32502;DHT22;18952;52.516;13.460;2024-01-15T07:49:33;1.90;72.20
32502;DHT22;18952;52.516;13.460;2024-01-15T07:52:04;1.90;71.90
32502;DHT22;18952;52.516;13.460;2024-01-15T07:54:31;2.00;71.80
32502;DHT22;18952;52.516;13.460;2024-01-15T07:57:03;2.00;72.00
32502;DHT22;18952;52.516;13.460;2024-01-15T07:59:30;2.00;71.40
32502;DHT22;18952;52.516;13.460;2024-01-15T08:01:59;2.00;72.20
32502;DHT22;18952;52.516;13.460;2024-01-15T08:04:30;2.00;72.50
32502;DHT22;18952;52.516;13.460;2024-01-15T08:06:58;2.00;72.40
32502;DHT22;18952;52.516;13.460;2024-01-15T08:09:25;1.90;72.20
32502;DHT22;18952;52.516;13.460;2024-01-15T08:11:52;2.00;71.90
32502;DHT22;18952;52.516;13.460;2024-01-15T08:14:20;2.10;71.70
32502;DHT22;18952;52.516;13.460;2024-01-15T08:16:47;2.20;71.50
32502;DHT22;18952;52.516;13.460;2024-01-15T08:19:16;2.10;71.20
32502;DHT22;18952;52.516;13.460;2024-01-15T08:21:44;2.20;70.80
32502;DHT22;18952;52.516;13.460;2024-01-15T08:24:13;2.10;71.50
32502;DHT22;18952;52.516;13.460;2024-01-15T08:26:40;2.00;72.00
32502;DHT22;18952;52.516;13.460;2024-01-15T08:29:09;2.00;72.00
32502;DHT22;18952;52.516;13.460;2024-01-15T08:31:35;2.00;71.80
32502;DHT22;18952;52.516;13.460;2024-01-15T08:34:04;1.90;72.40
32502;DHT22;18952;52.516;13.460;2024-01-15T08:36:32;2.10;72.00
32502;DHT22;18952;52.516;13.460;2024-01-15T08:39:00;2.00;71.80
32502;DHT22;18952;52.516;13.460;2024-01-15T08:41:33;2.10;72.10
32502;DHT22;18952;52.516;13.460;2024-01-15T08:44:01;2.10;71.50
32502;DHT22;18952;52.516;13.460;2024-01-15T08:46:28;2.10;71.40
32502;DHT22;18952;52.516;13.460;2024-01-15T08:48:56;2.00;70.90
32502;DHT22;18952;52.516;13.460;2024-01-15T08:51:26;1.90;71.50
32502;DHT22;18952;52.516;13.460;2024-01-15T08:53:54;2.10;71.10
32502;DHT22;18952;52.516;13.460;2024-01-15T08:56:20;2.10;70.90
32502;DHT22;18952;52.516;13.460;2024-01-15T08:58:49;2.10;71.00
32502;DHT22;18952;52.516;13.460;2024-01-15T09:01:16;2.10;71.20
32502;DHT22;18952;52.516;13.460;2024-01-15T09:03:45;2.10;71.30
32502;DHT22;18952;52.516;13.460;2024-01-15T09:06:17;2.00;71.50
32502;DHT22;18952;52.516;13.460;2024-01-15T09:08:45;2.00;71.60
32502;DHT22;18952;52.516;13.460;2024-01-15T09:11:14;2.10;71.70
32502;DHT22;18952;52.516;13.460;2024-01-15T09:13:43;2.00;71.90
32502;DHT22;18952;52.516;13.460;2024-01-15T09:16:13;2.10;71.70
32502;DHT22;18952;52.516;13.460;2024-01-15T09:18:41;2.00;71.70
32502;DHT22;18952;52.516;13.460;2024-01-15T09:21:10;2.00;72.00
32502;DHT22;18952;52.516;13.460;2024-01-15T09:23:38;2.10;72.00
32502;DHT22;18952;52.516;13.460;2024-01-15T09:26:08;2.10;72.40
32502;DHT22;18952;52.516;13.460;2024-01-15T09:28:35;2.10;72.20
32502;DHT22;18952;52.516;13.460;2024-01-15T09:31:02;2.10;72.20
32502;DHT22;18952;52.516;13.460;2024-01-15T09:33:32;2.10;72.20
32502;DHT22;18952;52.516;13.460;2024-01-15T09:36:04;2.20;71.80
32502;DHT22;18952;52.516;13.460;2024-01-15T09:38:34;2.10;72.60
32502;DHT22;18952;52.516;13.460;2024-01-15T09:41:02;2.10;72.30
32502;DHT22;18952;52.516;13.460;2024-01-15T09:43:30;2.10;71.90
32502;DHT22;18952;52.516;13.460;2024-01-15T09:45:58;2.10;71.80
32502;DHT22;18952;52.516;13.460;2024-01-15T09:48:27;2.10;71.70
32502;DHT22;18952;52.516;13.460;2024-01-15T09:50:57;2.20;71.40
32502;DHT22;18952;52.516;13.460;2024-01-15T09:53:25;2.30;71.10
32502;DHT22;18952;52.516;13.460;2024-01-15T09:55:53;2.30;71.00
32502;DHT22;18952;52.516;13.460;2024-01-15T09:58:20;2.30;71.10
32502;DHT22;18952;52.516;13.460;2024-01-15T10:00:48;2.30;70.90
32502;DHT22;18952;52.516;13.460;2024-01-15T10:03:16;2.30;71.30
32502;DHT22;18952;52.516;13.460;2024-01-15T10:05:43;2.40;70.80
32502;DHT22;18952;52.516;13.460;2024-01-15T10:08:12;2.50;70.40
32502;DHT22;18952;52.516;13.460;2024-01-15T10:10:39;2.50;70.30
32502;DHT22;18952;52.516;13.460;2024-01-15T10:13:07;2.40;70.40
32502;DHT22;18952;52.516;13.460;2024-01-15T10:15:35;2.50;70.70
32502;DHT22;18952;52.516;13.460;2024-01-15T10:18:02;2.40;70.50
32502;DHT22;18952;52.516;13.460;2024-01-15T10:20:32;2.40;71.00
32502;DHT22;18952;52.516;13.460;2024-01-15T10:23:00;2.40;69.70
32502;DHT22;18952;52.516;13.460;2024-01-15T10:25:29;2.30;70.40
32502;DHT22;18952;52.516;13.460;2024-01-15T10:28:02;2.30;70.80
32502;DHT22;18952;52.516;13.460;2024-01-15T10:30:32;2.40;70.60
32502;DHT22;18952;52.516;13.460;2024-01-15T10:33:03;2.50;70.50
32502;DHT22;18952;52.516;13.460;2024-01-15T10:35:33;2.50;70.20
32502;DHT22;18952;52.516;13.460;2024-01-15T10:38:02;2.50;70.10
32502;DHT22;18952;52.516;13.460;2024-01-15T10:40:30;2.60;69.50
32502;DHT22;18952;52.516;13.460;2024-01-15T10:42:59;2.50;69.00
32502;DHT22;18952;52.516;13.460;2024-01-15T10:45:26;2.40;69.90
32502;DHT22;18952;52.516;13.460;2024-01-15T10:47:54;2.50;70.00
32502;DHT22;18952;52.516;13.460;2024-01-15T10:50:21;2.60;69.30
32502;DHT22;18952;52.516;13.460;2024-01-15T10:52:52;2.60;69.40
32502;DHT22;18952;52.516;13.460;2024-01-15T10:55:20;2.60;69.50
32502;DHT22;18952;52.516;13.460;2024-01-15T10:57:49;2.50;69.50
32502;DHT22;18952;52.516;13.460;2024-01-15T11:00:16;2.50;69.80
32502;DHT22;18952;52.516;13.460;2024-01-15T11:02:45;2.50;69.60
32502;DHT22;18952;52.516;13.460;2024-01-15T11:05:13;2.50;69.50
32502;DHT22;18952;52.516;13.460;2024-01-15T11:07:40;2.50;69.10
32502;DHT22;18952;52.516;13.460;2024-01-15T11:10:47;2.50;69.10
32502;DHT22;18952;52.516;13.460;2024-01-15T11:16:12;2.50;69.30
32502;DHT22;18952;52.516;13.460;2024-01-15T11:21:26;2.60;68.20
32502;DHT22;18952;52.516;13.460;2024-01-15T11:23:59;2.60;69.20
32502;DHT22;18952;52.516;13.460;2024-01-15T11:29:00;2.70;68.60
32502;DHT22;18952;52.516;13.460;2024-01-15T11:34:54;2.60;69.30
32502;DHT22;18952;52.516;13.460;2024-01-15T11:37:21;2.60;69.50
32502;DHT22;18952;52.516;13.460;2024-01-15T11:40:10;2.50;70.20
32502;DHT22;18952;52.516;13.460;2024-01-15T11:42:38;2.50;70.60
32502;DHT22;18952;52.516;13.460;2024-01-15T11:45:04;2.50;70.60
32502;DHT22;18952;52.516;13.460;2024-01-15T11:50:40;2.50;71.10
32502;DHT22;18952;52.516;13.460;2024-01-15T11:55:58;2.50;72.80
32502;DHT22;18952;52.516;13.460;2024-01-15T11:58:27;2.30;74.40
32502;DHT22;18952;52.516;13.460;2024-01-15T12:00:55;2.10;75.90
32502;DHT22;18952;52.516;13.460;2024-01-15T12:03:23;1.80;77.50
32502;DHT22;18952;52.516;13.460;2024-01-15T12:05:52;1.70;78.50
32502;DHT22;18952;52.516;13.460;2024-01-15T12:08:23;1.60;79.90
32502;DHT22;18952;52.516;13.460;2024-01-15T12:10:50;1.60;80.00
32502;DHT22;18952;52.516;13.460;2024-01-15T12:13:19;1.50;80.00
32502;DHT22;18952;52.516;13.460;2024-01-15T12:15:47;1.50;79.50
32502;DHT22;18952;52.516;13.460;2024-01-15T12:18:17;1.50;79.40
32502;DHT22;18952;52.516;13.460;2024-01-15T12:20:46;1.50;79.40
32502;DHT22;18952;52.516;13.460;2024-01-15T12:23:14;1.60;79.00
32502;DHT22;18952;52.516;13.460;2024-01-15T12:25:42;1.60;79.30
32502;DHT22;18952;52.516;13.460;2024-01-15T12:28:10;1.60;78.40
32502;DHT22;18952;52.516;13.460;2024-01-15T12:30:37;1.60;78.90
32502;DHT22;18952;52.516;13.460;2024-01-15T12:33:07;1.60;78.70
32502;DHT22;18952;52.516;13.460;2024-01-15T12:35:36;1.60;78.30
32502;DHT22;18952;52.516;13.460;2024-01-15T12:38:03;1.70;77.80
32502;DHT22;18952;52.516;13.460;2024-01-15T12:40:33;1.70;77.50
32502;DHT22;18952;52.516;13.460;2024-01-15T12:43:00;1.70;77.90
32502;DHT22;18952;52.516;13.460;2024-01-15T12:45:29;1.60;78.60
32502;DHT22;18952;52.516;13.460;2024-01-15T12:47:58;1.60;77.90
32502;DHT22;18952;52.516;13.460;2024-01-15T12:50:26;1.60;78.30
32502;DHT22;18952;52.516;13.460;2024-01-15T12:52:55;1.30;79.50
32502;DHT22;18952;52.516;13.460;2024-01-15T12:55:22;1.30;80.20
32502;DHT22;18952;52.516;13.460;2024-01-15T12:57:51;1.30;80.30
32502;DHT22;18952;52.516;13.460;2024-01-15T13:00:23;1.30;81.20
32502;DHT22;18952;52.516;13.460;2024-01-15T13:02:51;1.20;81.50
32502;DHT22;18952;52.516;13.460;2024-01-15T13:05:20;1.30;81.20
32502;DHT22;18952;52.516;13.460;2024-01-15T13:07:47;1.30;80.40
32502;DHT22;18952;52.516;13.460;2024-01-15T13:10:15;1.30;80.30
32502;DHT22;18952;52.516;13.460;2024-01-15T13:12:43;1.40;81.00
32502;DHT22;18952;52.516;13.460;2024-01-15T13:15:11;1.40;80.70
32502;DHT22;18952;52.516;13.460;2024-01-15T13:17:43;1.40;79.60
32502;DHT22;18952;52.516;13.460;2024-01-15T13:20:12;1.40;80.50
32502;DHT22;18952;52.516;13.460;2024-01-15T13:22:41;1.50;79.40
32502;DHT22;18952;52.516;13.460;2024-01-15T13:25:10;1.50;80.00
32502;DHT22;18952;52.516;13.460;2024-01-15T13:27:37;1.50;79.30
32502;DHT22;18952;52.516;13.460;2024-01-15T13:30:06;1.50;79.10
32502;DHT22;18952;52.516;13.460;2024-01-15T13:32:34;1.60;79.00
32502;DHT22;18952;52.516;13.460;2024-01-15T13:35:05;1.60;78.40
32502;DHT22;18952;52.516;13.460;2024-01-15T13:37:32;1.50;78.00
32502;DHT22;18952;52.516;13.460;2024-01-15T13:40:01;1.60;78.30
32502;DHT22;18952;52.516;13.460;2024-01-15T13:42:30;1.50;77.90
32502;DHT22;18952;52.516;13.460;2024-01-15T13:44:57;1.60;78.10
32502;DHT22;18952;52.516;13.460;2024-01-15T13:47:24;1.60;77.90
32502;DHT22;18952;52.516;13.460;2024-01-15T13:49:52;1.60;78.60
32502;DHT22;18952;52.516;13.460;2024-01-15T13:52:20;1.60;78.70
32502;DHT22;18952;52.516;13.460;2024-01-15T13:54:47;1.50;80.50
32502;DHT22;18952;52.516;13.460;2024-01-15T13:57:18;1.60;79.50
32502;DHT22;18952;52.516;13.460;2024-01-15T13:59:45;1.60;80.20
32502;DHT22;18952;52.516;13.460;2024-01-15T14:02:14;1.60;79.40
32502;DHT22;18952;52.516;13.460;2024-01-15T14:04:48;1.60;78.80
32502;DHT22;18952;52.516;13.460;2024-01-15T14:07:16;1.60;77.90
32502;DHT22;18952;52.516;13.460;2024-01-15T14:09:44;1.60;78.20
32502;DHT22;18952;52.516;13.460;2024-01-15T14:12:11;1.60;77.60
32502;DHT22;18952;52.516;13.460;2024-01-15T14:14:39;1.60;77.30
32502;DHT22;18952;52.516;13.460;2024-01-15T14:17:07;1.60;76.80
32502;DHT22;18952;52.516;13.460;2024-01-15T14:19:34;1.50;76.90
32502;DHT22;18952;52.516;13.460;2024-01-15T14:22:03;1.60;76.60
32502;DHT22;18952;52.516;13.460;2024-01-15T14:24:30;1.60;76.10
32502;DHT22;18952;52.516;13.460;2024-01-15T14:26:58;1.60;76.50
32502;DHT22;18952;52.516;13.460;2024-01-15T14:29:25;1.60;76.50
32502;DHT22;18952;52.516;13.460;2024-01-15T14:31:55;1.60;76.30
32502;DHT22;18952;52.516;13.460;2024-01-15T14:34:25;1.60;76.20
32502;DHT22;18952;52.516;13.460;2024-01-15T14:36:54;1.70;76.20
32502;DHT22;18952;52.516;13.460;2024-01-15T14:39:21;1.60;75.90
32502;DHT22;18952;52.516;13.460;2024-01-15T14:41:49;1.60;75.90
32502;DHT22;18952;52.516;13.460;2024-01-15T14:44:18;1.70;75.20
32502;DHT22;18952;52.516;13.460;2024-01-15T14:46:46;1.60;75.00
32502;DHT22;18952;52.516;13.460;2024-01-15T14:49:16;1.70;75.30
32502;DHT22;18952;52.516;13.460;2024-01-15T14:51:45;1.70;74.80
32502;DHT22;18952;52.516;13.460;2024-01-15T14:54:16;1.60;74.40
32502;DHT22;18952;52.516;13.460;2024-01-15T14:56:50;1.60;74.60
32502;DHT22;18952;52.516;13.460;2024-01-15T14:59:17;1.60;74.10
32502;DHT22;18952;52.516;13.460;2024-01-15T15:01:44;1.70;73.60
32502;DHT22;18952;52.516;13.460;2024-01-15T15:04:11;1.60;73.70
32502;DHT22;18952;52.516;13.460;2024-01-15T15:06:38;1.60;73.90
32502;DHT22;18952;52.516;13.460;2024-01-15T15:09:07;1.60;73.80
32502;DHT22;18952;52.516;13.460;2024-01-15T15:11:37;1.60;74.20
32502;DHT22;18952;52.516;13.460;2024-01-15T15:14:08;1.60;73.90
32502;DHT22;18952;52.516;13.460;2024-01-15T15:16:36;1.60;74.00
32502;DHT22;18952;52.516;13.460;2024-01-15T15:19:06;1.50;74.80
32502;DHT22;18952;52.516;13.460;2024-01-15T15:21:33;1.50;74.80
32502;DHT22;18952;52.516;13.460;2024-01-15T15:24:01;1.60;73.90
32502;DHT22;18952;52.516;13.460;2024-01-15T15:26:28;1.60;74.00
32502;DHT22;18952;52.516;13.460;2024-01-15T15:28:55;1.50;74.10
32502;DHT22;18952;52.516;13.460;2024-01-15T15:31:22;1.50;74.40
32502;DHT22;18952;52.516;13.460;2024-01-15T15:33:50;1.60;74.00
32502;DHT22;18952;52.516;13.460;2024-01-15T15:36:17;1.50;74.20
32502;DHT22;18952;52.516;13.460;2024-01-15T15:38:45;1.50;74.60
32502;DHT22;18952;52.516;13.460;2024-01-15T15:41:12;1.40;74.60
32502;DHT22;18952;52.516;13.460;2024-01-15T15:43:40;1.50;75.00
32502;DHT22;18952;52.516;13.460;2024-01-15T15:46:08;1.50;75.40
32502;DHT22;18952;52.516;13.460;2024-01-15T15:48:36;1.40;75.80
32502;DHT22;18952;52.516;13.460;2024-01-15T15:51:03;1.50;76.20
32502;DHT22;18952;52.516;13.460;2024-01-15T15:53:32;1.50;76.50
32502;DHT22;18952;52.516;13.460;2024-01-15T15:55:59;1.40;76.40